Time;durP1;ratioP1;P1;durP2;ratioP2;P2;SDS_P1;SDS_P2;PMS_P1;PMS_P2;Temp;Humidity;BMP_temperature;BMP_pressure;BME280_temperature;BME280_humidity;BME280_pressure;Samples;Min_cycle;Max_cycle;Signal;HPM_P1;HPM_P2
2021/08/24 00:00:02;;;;;;;1.77;1.00;;;;;;;14.52;66.49;101833.28;5036609;28;20226;-73
2021/08/24 00:02:28;;;;;;;1.40;1.23;;;;;;;14.49;66.97;101836.19;5043321;28;20197;-73
2021/08/24 00:04:55;;;;;;;3.37;1.90;;;;;;;14.46;66.83;101836.38;5043473;28;20197;-73
2021/08/24 00:07:21;;;;;;;6.37;3.30;;;;;;;14.44;66.74;101837.41;5044284;28;20212;-73
2021/08/24 00:09:48;;;;;;;3.83;2.47;;;;;;;14.40;66.83;101836.72;5037901;28;20226;-74
2021/08/24 00:12:15;;;;;;;3.13;1.70;;;;;;;14.36;67.18;101835.16;5048728;28;20204;-73
2021/08/24 00:14:42;;;;;;;1.87;1.37;;;;;;;14.32;67.15;101839.00;5043162;28;20205;-74
2021/08/24 00:17:09;;;;;;;2.53;1.50;;;;;;;14.28;67.29;101842.81;5045458;28;20209;-73
2021/08/24 00:19:36;;;;;;;1.43;1.00;;;;;;;14.23;67.24;101850.25;5041250;28;20709;-73
2021/08/24 00:22:02;;;;;;;1.43;1.03;;;;;;;14.18;67.48;101846.97;5040937;28;20202;-73
2021/08/24 00:24:29;;;;;;;1.50;1.00;;;;;;;14.09;67.28;101851.06;5048482;28;20205;-73
2021/08/24 00:26:55;;;;;;;1.07;0.97;;;;;;;14.01;67.47;101849.78;5041924;28;20210;-73
2021/08/24 00:29:22;;;;;;;1.60;1.20;;;;;;;13.94;67.49;101854.66;5040199;28;20232;-73
2021/08/24 00:31:50;;;;;;;1.30;1.10;;;;;;;13.90;68.01;101855.78;5039845;28;20226;-73
2021/08/24 00:34:17;;;;;;;1.70;1.20;;;;;;;13.86;68.44;101856.91;5045507;28;20228;-73
2021/08/24 00:36:43;;;;;;;1.20;1.10;;;;;;;13.82;68.50;101853.53;5049863;28;20291;-73
2021/08/24 00:39:10;;;;;;;1.50;1.10;;;;;;;13.80;68.33;101858.09;5034870;28;20221;-73
2021/08/24 00:41:37;;;;;;;1.70;1.10;;;;;;;13.77;68.65;101852.09;5040782;28;20315;-73
2021/08/24 00:44:06;;;;;;;2.90;1.20;;;;;;;13.73;68.71;101851.41;5039452;28;20213;-73
2021/08/24 00:46:35;;;;;;;2.20;1.60;;;;;;;13.71;68.67;101855.09;5037685;28;20209;-73
2021/08/24 00:49:07;;;;;;;1.93;1.13;;;;;;;13.67;68.63;101858.91;5034684;28;20226;-73
2021/08/24 00:51:36;;;;;;;3.43;1.43;;;;;;;13.65;68.78;101852.75;5042116;28;20213;-74
2021/08/24 00:54:03;;;;;;;1.63;1.00;;;;;;;13.63;69.29;101863.56;5050812;28;20224;-73
2021/08/24 00:56:31;;;;;;;1.90;1.27;;;;;;;13.60;69.00;101863.75;5049080;28;20228;-73
2021/08/24 00:58:59;;;;;;;3.37;1.23;;;;;;;13.56;68.95;101862.19;5048836;28;20228;-73
2021/08/24 01:01:26;;;;;;;2.50;1.20;;;;;;;13.53;69.16;101865.91;5045987;28;20205;-74
2021/08/24 01:03:52;;;;;;;2.33;1.47;;;;;;;13.51;69.06;101861.59;5047637;28;20197;-73
2021/08/24 01:06:29;;;;;;;1.83;1.20;;;;;;;13.48;69.29;101873.31;5052888;28;20236;-74
2021/08/24 01:09:08;;;;;;;2.30;1.20;;;;;;;13.44;69.60;101870.91;5048517;28;20315;-73
2021/08/24 01:11:41;;;;;;;2.00;1.30;;;;;;;13.42;69.67;101872.81;5049795;28;20206;-73
2021/08/24 01:14:19;;;;;;;1.97;1.10;;;;;;;13.37;69.29;101878.41;5046378;28;20221;-72
2021/08/24 01:16:54;;;;;;;1.63;1.20;;;;;;;13.34;69.76;101877.72;5046970;28;20201;-73
2021/08/24 01:19:46;;;;;;;3.23;1.53;;;;;;;13.33;69.32;101881.34;5048495;28;20228;-73
2021/08/24 01:22:35;;;;;;;1.73;1.40;;;;;;;13.30;69.33;101868.13;5043636;28;20205;-73
2021/08/24 01:25:06;;;;;;;2.70;1.37;;;;;;;13.27;69.58;101873.66;5048225;28;20208;-73
2021/08/24 01:27:37;;;;;;;2.50;1.50;;;;;;;13.24;70.01;101872.03;5048311;28;20213;-73
2021/08/24 01:30:16;;;;;;;1.30;1.20;;;;;;;13.22;69.71;101865.03;5046298;28;20213;-73
2021/08/24 01:33:00;;;;;;;2.80;1.40;;;;;;;13.18;69.56;101869.69;5044367;28;20216;-73
2021/08/24 01:35:45;;;;;;;2.57;1.37;;;;;;;13.16;70.04;101874.25;5048160;28;20206;-73
2021/08/24 01:38:18;;;;;;;1.80;1.17;;;;;;;13.12;69.65;101873.50;5055506;28;20216;-73
2021/08/24 01:40:51;;;;;;;2.03;1.30;;;;;;;13.09;69.96;101865.66;5048102;28;20209;-73
2021/08/24 01:43:23;;;;;;;3.73;1.27;;;;;;;13.07;70.23;101872.06;5048888;28;20687;-73
2021/08/24 01:45:55;;;;;;;2.43;1.40;;;;;;;13.02;70.16;101871.44;5045887;28;20202;-73
2021/08/24 01:48:26;;;;;;;3.50;1.50;;;;;;;12.98;70.30;101868.06;5048120;28;20211;-72
2021/08/24 01:50:59;;;;;;;1.77;1.20;;;;;;;12.95;70.48;101878.03;5058271;28;20669;-73
2021/08/24 01:53:33;;;;;;;2.57;1.40;;;;;;;12.91;70.64;101874.66;5055183;28;20720;-73
2021/08/24 01:56:06;;;;;;;1.33;1.17;;;;;;;12.87;70.31;101875.81;5052241;28;20205;-73
2021/08/24 01:58:39;;;;;;;2.47;1.57;;;;;;;12.80;70.74;101879.72;5050951;28;20225;-73
2021/08/24 02:01:10;;;;;;;1.40;1.00;;;;;;;12.75;70.95;101877.28;5048329;28;20206;-72
2021/08/24 02:03:41;;;;;;;1.47;1.10;;;;;;;12.68;70.53;101885.75;5050747;28;20225;-73
2021/08/24 02:06:14;;;;;;;3.23;1.47;;;;;;;12.57;70.46;101877.41;5054054;28;20206;-72
2021/08/24 02:08:47;;;;;;;2.10;1.43;;;;;;;12.48;70.71;101879.63;5052547;28;20593;-73
2021/08/24 02:11:14;;;;;;;3.80;1.67;;;;;;;12.42;71.14;101879.94;5051373;28;20204;-72
2021/08/24 02:13:45;;;;;;;1.93;1.40;;;;;;;12.39;71.54;101882.75;5055366;28;20224;-73
2021/08/24 02:16:21;;;;;;;2.33;1.77;;;;;;;12.35;71.58;101878.53;5049447;28;20210;-72
2021/08/24 02:18:53;;;;;;;1.90;1.60;;;;;;;12.32;71.72;101883.16;5047020;28;20232;-73
2021/08/24 02:21:24;;;;;;;3.53;1.60;;;;;;;12.25;71.79;101876.38;5042093;28;20201;-72
2021/08/24 02:23:55;;;;;;;1.83;1.40;;;;;;;12.20;71.97;101889.09;5046662;28;20858;-73
2021/08/24 02:26:25;;;;;;;3.40;1.90;;;;;;;12.16;72.31;101888.41;5053226;28;20204;-73
2021/08/24 02:28:55;;;;;;;1.30;1.20;;;;;;;12.11;72.24;101887.78;5052802;28;20605;-73
2021/08/24 02:31:29;;;;;;;1.80;1.50;;;;;;;12.06;72.42;101884.47;5053473;28;20209;-73
2021/08/24 02:34:04;;;;;;;2.53;1.53;;;;;;;12.03;72.69;101897.97;5053267;28;20235;-73
2021/08/24 02:36:34;;;;;;;2.20;1.50;;;;;;;11.99;72.53;101897.28;5060187;28;20201;-73
2021/08/24 02:39:05;;;;;;;1.60;1.10;;;;;;;11.94;72.73;101896.63;5056663;28;20229;-73
2021/08/24 02:41:39;;;;;;;3.23;1.60;;;;;;;11.91;72.99;101893.22;5038262;28;20217;-73
2021/08/24 02:44:11;;;;;;;2.23;1.23;;;;;;;11.87;73.06;101905.88;5049452;28;20579;-73
2021/08/24 02:46:42;;;;;;;3.10;1.70;;;;;;;11.83;73.28;101897.13;5065493;28;20217;-73
2021/08/24 02:49:11;;;;;;;3.13;1.77;;;;;;;11.82;73.51;101906.06;5050558;28;20220;-73
2021/08/24 02:51:38;;;;;;;1.70;1.50;;;;;;;11.81;73.60;101903.50;5045577;28;20200;-73
2021/08/24 02:54:15;;;;;;;2.20;1.80;;;;;;;11.79;73.83;101906.25;5050065;28;20280;-71
2021/08/24 02:56:41;;;;;;;2.40;1.10;;;;;;;11.78;74.05;101919.66;5053673;28;20588;-73
2021/08/24 02:59:08;;;;;;;1.43;1.30;;;;;;;11.74;73.39;101918.03;5058227;28;20239;-72
2021/08/24 03:01:35;;;;;;;1.97;1.20;;;;;;;11.69;73.39;101920.06;5063116;28;20207;-73
2021/08/24 03:04:02;;;;;;;1.53;1.23;;;;;;;11.65;73.62;101923.81;5052502;28;20204;-73
2021/08/24 03:06:31;;;;;;;3.00;1.70;;;;;;;11.62;73.63;101913.31;5052758;28;20211;-73
2021/08/24 03:08:57;;;;;;;2.00;1.57;;;;;;;11.58;73.68;101915.25;5061917;28;20243;-73
2021/08/24 03:11:29;;;;;;;2.70;1.50;;;;;;;11.51;73.34;101924.47;5052215;28;20212;-73
2021/08/24 03:14:00;;;;;;;2.20;1.47;;;;;;;11.39;72.99;101925.03;5051322;28;20228;-73
2021/08/24 03:16:30;;;;;;;5.47;1.53;;;;;;;11.29;73.36;101927.25;5045645;28;20209;-73
2021/08/24 03:19:02;;;;;;;2.13;1.40;;;;;;;11.25;73.78;101924.81;5054943;28;20226;-72
2021/08/24 03:21:32;;;;;;;2.10;1.60;;;;;;;11.20;74.14;101917.03;5049775;28;20694;-73
2021/08/24 03:23:59;;;;;;;1.93;1.60;;;;;;;11.20;74.38;101924.16;5051205;28;20592;-73
2021/08/24 03:26:30;;;;;;;2.13;1.20;;;;;;;11.18;74.53;101921.56;5050233;28;20212;-73
2021/08/24 03:28:57;;;;;;;2.00;1.63;;;;;;;11.14;74.81;101923.50;5051068;28;20252;-73
2021/08/24 03:31:26;;;;;;;3.07;1.40;;;;;;;11.12;74.63;101924.50;5050395;28;20712;-72
2021/08/24 03:33:52;;;;;;;2.70;1.40;;;;;;;11.11;74.77;101928.09;5051219;28;20220;-73
2021/08/24 03:36:19;;;;;;;2.90;1.73;;;;;;;11.06;74.93;101923.00;5050754;28;20213;-73
2021/08/24 03:38:45;;;;;;;1.63;1.47;;;;;;;11.04;74.91;101921.34;5050265;28;20231;-73
2021/08/24 03:41:13;;;;;;;1.57;1.30;;;;;;;11.02;74.93;101929.41;5051666;28;20206;-73
2021/08/24 03:43:41;;;;;;;2.63;1.90;;;;;;;10.98;74.95;101919.78;5051790;28;20204;-73
2021/08/24 03:46:08;;;;;;;3.37;1.40;;;;;;;10.92;74.79;101917.44;5048994;28;20205;-73
2021/08/24 03:48:34;;;;;;;1.67;1.50;;;;;;;10.86;74.86;101928.34;5045617;28;20236;-73
2021/08/24 03:51:01;;;;;;;1.70;1.37;;;;;;;10.82;75.00;101928.53;5052239;28;20581;-73
2021/08/24 03:53:28;;;;;;;2.10;1.40;;;;;;;10.78;75.13;101920.69;5060186;28;20205;-73
2021/08/24 03:55:54;;;;;;;2.30;1.20;;;;;;;10.76;75.30;101927.00;5052510;28;20225;-73
2021/08/24 03:58:21;;;;;;;2.20;1.67;;;;;;;10.74;75.40;101929.75;5050964;28;20209;-72
2021/08/24 04:00:49;;;;;;;1.97;1.50;;;;;;;10.74;75.42;101934.22;5050247;28;20198;-73
2021/08/24 04:03:16;;;;;;;1.57;1.40;;;;;;;10.73;75.66;101932.50;5050785;28;20662;-73
2021/08/24 04:05:43;;;;;;;1.93;1.33;;;;;;;10.72;75.65;101930.75;5055059;28;20205;-72
2021/08/24 04:08:09;;;;;;;2.00;1.47;;;;;;;10.68;75.65;101931.81;5050156;28;20221;-73
2021/08/24 04:10:40;;;;;;;3.77;1.57;;;;;;;10.65;75.81;101930.16;5050293;28;20213;-73
2021/08/24 04:13:07;;;;;;;2.20;1.37;;;;;;;10.63;75.84;101939.13;5049350;28;20205;-72
2021/08/24 04:15:33;;;;;;;3.47;1.40;;;;;;;10.61;76.02;101936.53;5051032;28;20690;-72
2021/08/24 04:18:01;;;;;;;1.63;1.30;;;;;;;10.57;76.17;101939.41;5050805;28;20201;-73
2021/08/24 04:20:28;;;;;;;1.73;1.20;;;;;;;10.51;75.97;101943.19;5050060;28;20260;-73
2021/08/24 04:22:54;;;;;;;2.47;1.40;;;;;;;10.48;75.96;101945.13;5050697;28;20677;-73
2021/08/24 04:25:21;;;;;;;3.03;1.63;;;;;;;10.44;76.54;101945.25;5045988;28;20197;-73
2021/08/24 04:27:47;;;;;;;3.20;1.47;;;;;;;10.44;76.79;101952.38;5057974;28;20209;-72
2021/08/24 04:30:15;;;;;;;3.03;1.70;;;;;;;10.44;76.63;101947.03;5050158;28;20236;-73
2021/08/24 04:32:43;;;;;;;1.57;1.47;;;;;;;10.42;76.78;101955.09;5043879;28;20210;-73
2021/08/24 04:35:11;;;;;;;1.87;1.33;;;;;;;10.41;76.81;101947.16;5048730;28;20228;-72
2021/08/24 04:37:38;;;;;;;2.73;1.20;;;;;;;10.40;76.84;101954.28;5037404;28;20210;-72
2021/08/24 04:40:06;;;;;;;1.60;1.30;;;;;;;10.35;76.51;101961.63;5039274;28;20226;-72
2021/08/24 04:42:32;;;;;;;2.17;1.60;;;;;;;10.33;77.07;101968.81;5049518;28;20206;-73
2021/08/24 04:44:59;;;;;;;3.00;1.33;;;;;;;10.29;76.96;101964.53;5050270;28;20201;-73
2021/08/24 04:47:26;;;;;;;2.30;1.50;;;;;;;10.24;76.51;101968.31;5046232;28;20721;-73
2021/08/24 04:49:52;;;;;;;2.57;1.67;;;;;;;10.22;76.91;101971.03;5045021;28;20229;-73
2021/08/24 04:52:20;;;;;;;2.40;1.50;;;;;;;10.22;77.11;101979.00;5048458;28;20674;-72
2021/08/24 04:54:47;;;;;;;2.13;1.87;;;;;;;10.22;77.68;101975.47;5041235;28;20237;-72
2021/08/24 04:57:14;;;;;;;3.10;1.60;;;;;;;10.23;78.01;101988.72;5035539;28;20203;-73
2021/08/24 04:59:40;;;;;;;2.13;1.73;;;;;;;10.25;77.95;101986.88;5036900;28;20313;-72
2021/08/24 05:02:07;;;;;;;2.27;1.77;;;;;;;10.25;78.10;101983.34;5039748;28;20204;-72
2021/08/24 05:04:34;;;;;;;2.83;1.60;;;;;;;10.27;77.91;101986.81;5040712;28;20229;-71
2021/08/24 05:07:01;;;;;;;3.40;2.07;;;;;;;10.29;78.56;101993.81;5035586;28;20210;-73
2021/08/24 05:09:29;;;;;;;2.93;2.30;;;;;;;10.32;78.84;101990.16;5035064;28;20261;-72
2021/08/24 05:11:56;;;;;;;3.83;2.17;;;;;;;10.37;79.03;101991.72;5034187;28;20622;-72
2021/08/24 05:14:22;;;;;;;2.33;1.87;;;;;;;10.42;79.31;101989.72;5048714;28;20202;-73
2021/08/24 05:16:54;;;;;;;3.03;1.87;;;;;;;10.47;79.41;101992.19;5047522;28;20673;-73
2021/08/24 05:19:20;;;;;;;2.73;2.00;;;;;;;10.51;79.54;101985.81;5041162;28;20221;-72
2021/08/24 05:21:56;;;;;;;4.73;2.87;;;;;;;10.56;79.54;101996.28;5039222;28;20677;-73
2021/08/24 05:24:23;;;;;;;4.67;2.77;;;;;;;10.59;80.14;101991.66;5042214;28;20691;-72
2021/08/24 05:26:50;;;;;;;5.23;3.23;;;;;;;10.64;80.21;102002.16;5045651;28;20713;-72
2021/08/24 05:29:17;;;;;;;7.13;4.07;;;;;;;10.67;80.07;101997.56;5046356;28;20695;-73
2021/08/24 05:31:44;;;;;;;3.07;2.03;;;;;;;10.69;80.26;102000.16;5046447;28;21225;-73
2021/08/24 05:34:10;;;;;;;2.93;2.03;;;;;;;10.73;80.30;101991.13;5050155;28;20201;-72
2021/08/24 05:36:37;;;;;;;3.43;2.20;;;;;;;10.78;80.85;101999.75;5060442;28;20726;-71
2021/08/24 05:39:04;;;;;;;4.90;2.47;;;;;;;10.85;80.73;102003.03;5048861;28;20233;-73
2021/08/24 05:41:30;;;;;;;3.80;2.40;;;;;;;10.91;81.26;102000.97;5039768;28;20200;-72
2021/08/24 05:43:58;;;;;;;4.00;2.60;;;;;;;10.97;81.29;102000.69;5040035;28;20205;-72
2021/08/24 05:46:25;;;;;;;3.77;2.10;;;;;;;11.06;81.99;101999.44;5035581;28;20220;-73
2021/08/24 05:48:51;;;;;;;6.93;2.60;;;;;;;11.16;82.02;102005.22;5037280;28;20732;-72
2021/08/24 05:51:21;;;;;;;3.07;2.20;;;;;;;11.25;82.27;102011.03;5035292;28;20202;-73
2021/08/24 05:53:47;;;;;;;3.57;2.13;;;;;;;11.35;82.51;102011.47;5046130;28;20663;-73
2021/08/24 05:56:17;;;;;;;3.17;2.10;;;;;;;11.46;82.82;102009.22;5049398;28;20583;-72
2021/08/24 05:58:43;;;;;;;3.33;2.30;;;;;;;11.57;82.98;102012.25;5041916;28;20222;-72
2021/08/24 06:01:18;;;;;;;3.27;2.20;;;;;;;11.70;83.17;102012.53;5034679;28;20214;-72
2021/08/24 06:03:44;;;;;;;5.87;2.50;;;;;;;11.81;83.25;102008.47;5035397;28;20198;-73
2021/08/24 06:06:17;;;;;;;2.87;2.50;;;;;;;11.94;83.19;102010.56;5034249;28;20611;-73
2021/08/24 06:08:44;;;;;;;4.23;2.33;;;;;;;12.06;83.01;102016.16;5035618;28;20609;-73
2021/08/24 06:11:17;;;;;;;5.33;2.30;;;;;;;12.21;82.63;102011.03;5038000;28;20683;-73
2021/08/24 06:13:44;;;;;;;3.03;2.33;;;;;;;12.33;82.43;102016.66;5032284;28;20211;-72
2021/08/24 06:16:12;;;;;;;3.63;2.37;;;;;;;12.45;82.02;102012.50;5039280;28;20477;-73
2021/08/24 06:18:38;;;;;;;4.03;2.47;;;;;;;12.55;81.67;102013.75;5044013;28;20599;-73
2021/08/24 06:21:05;;;;;;;3.50;2.53;;;;;;;12.67;81.25;102015.84;5050437;28;20216;-72
2021/08/24 06:23:31;;;;;;;2.90;2.07;;;;;;;12.78;80.34;102015.28;5051362;28;20690;-73
2021/08/24 06:25:58;;;;;;;2.60;1.80;;;;;;;12.88;79.95;102010.34;5048368;28;20221;-72
2021/08/24 06:28:25;;;;;;;3.73;2.00;;;;;;;12.99;79.79;102022.22;5048640;28;20209;-74
2021/08/24 06:30:51;;;;;;;5.47;2.40;;;;;;;13.10;79.51;102009.13;5048818;28;20210;-73
2021/08/24 06:33:20;;;;;;;3.10;2.27;;;;;;;13.23;78.69;102012.09;5057397;28;20246;-73
2021/08/24 06:35:46;;;;;;;4.67;2.00;;;;;;;13.38;78.77;102018.44;5051089;28;20667;-73
2021/08/24 06:38:13;;;;;;;3.47;2.20;;;;;;;13.52;78.57;102023.91;5052703;28;20208;-72
2021/08/24 06:40:40;;;;;;;4.90;2.30;;;;;;;13.65;78.23;102019.59;5059410;28;20209;-73
2021/08/24 06:43:07;;;;;;;2.97;2.20;;;;;;;13.78;77.57;102025.19;5056355;28;20205;-72
2021/08/24 06:45:33;;;;;;;2.70;1.80;;;;;;;13.90;77.18;102028.03;5052137;28;20221;-73
2021/08/24 06:48:00;;;;;;;2.87;2.20;;;;;;;14.03;76.67;102030.03;5052099;28;20204;-73
2021/08/24 06:50:31;;;;;;;4.07;2.60;;;;;;;14.16;76.32;102031.91;5041186;28;20719;-73
2021/08/24 06:52:58;;;;;;;3.60;2.27;;;;;;;14.28;75.95;102029.53;5052607;28;20206;-72
2021/08/24 06:55:25;;;;;;;4.67;2.10;;;;;;;14.40;75.78;102035.06;5042511;28;21436;-73
2021/08/24 06:57:52;;;;;;;5.20;2.40;;;;;;;14.50;75.30;102030.91;5041929;28;20288;-73
2021/08/24 07:00:21;;;;;;;4.40;2.07;;;;;;;14.63;75.15;102031.06;5041103;28;20221;-72
2021/08/24 07:02:48;;;;;;;3.33;2.13;;;;;;;14.75;74.80;102032.16;5045738;28;20667;-73
2021/08/24 07:05:19;;;;;;;4.90;2.03;;;;;;;14.87;73.92;102031.41;5048137;28;20683;-73
2021/08/24 07:07:46;;;;;;;2.63;2.00;;;;;;;14.98;73.77;102037.03;5042800;28;20201;-73
2021/08/24 07:10:15;;;;;;;3.30;2.10;;;;;;;15.11;73.25;102037.16;5052539;23;20244;-70
2021/08/24 07:12:42;;;;;;;3.03;2.10;;;;;;;15.21;72.75;102038.34;5035203;28;20211;-69
2021/08/24 07:15:10;;;;;;;3.03;2.03;;;;;;;15.33;72.75;102044.75;5038112;28;20209;-70
2021/08/24 07:17:37;;;;;;;3.20;2.33;;;;;;;15.47;72.84;102042.09;5035930;28;20703;-70
2021/08/24 07:20:06;;;;;;;3.20;2.10;;;;;;;15.63;72.25;102042.91;5032234;28;20223;-71
2021/08/24 07:22:32;;;;;;;3.37;2.20;;;;;;;15.72;71.75;102047.72;5031879;28;20203;-68
2021/08/24 07:25:03;;;;;;;3.30;2.33;;;;;;;15.82;71.21;102054.22;5035067;28;20227;-70
2021/08/24 07:27:29;;;;;;;3.30;2.17;;;;;;;15.91;70.76;102060.84;5031824;28;20676;-71
2021/08/24 07:29:56;;;;;;;3.40;1.80;;;;;;;16.01;70.80;102055.72;5029534;28;20234;-69
2021/08/24 07:32:22;;;;;;;5.43;2.17;;;;;;;16.11;70.32;102054.19;5043587;28;20206;-71
2021/08/24 07:34:49;;;;;;;3.43;2.23;;;;;;;16.21;69.99;102060.69;5041662;28;20204;-70
2021/08/24 07:37:15;;;;;;;3.30;1.97;;;;;;;16.36;70.13;102054.31;5040923;28;20574;-71
2021/08/24 07:39:43;;;;;;;3.13;1.87;;;;;;;16.49;69.63;102055.22;5041294;28;21571;-72
2021/08/24 07:42:11;;;;;;;3.40;2.10;;;;;;;16.63;69.22;102046.31;5041160;28;20207;-70
2021/08/24 07:44:38;;;;;;;3.83;2.17;;;;;;;16.75;68.76;102052.69;5045559;28;20207;-71
2021/08/24 07:47:06;;;;;;;4.27;1.87;;;;;;;16.87;68.57;102050.03;5043834;28;20210;-70
2021/08/24 07:49:34;;;;;;;4.13;2.07;;;;;;;16.93;67.71;102048.75;5034753;28;20255;-72
2021/08/24 07:52:01;;;;;;;2.57;2.10;;;;;;;17.02;67.76;102049.97;5037277;28;20291;-71
2021/08/24 07:54:28;;;;;;;3.70;2.30;;;;;;;17.05;67.14;102050.59;5031508;28;20204;-70
2021/08/24 07:56:54;;;;;;;2.87;1.93;;;;;;;17.10;67.26;102044.91;5036579;28;20209;-74
2021/08/24 07:59:22;;;;;;;4.00;1.97;;;;;;;17.15;67.04;102051.72;5041505;28;20225;-71
2021/08/24 08:01:51;;;;;;;3.40;1.80;;;;;;;17.20;66.91;102049.53;5044330;28;20662;-72
2021/08/24 08:04:19;;;;;;;4.23;2.00;;;;;;;17.25;66.47;102049.22;5031881;28;20220;-72
2021/08/24 08:06:45;;;;;;;2.47;1.53;;;;;;;17.35;66.77;102044.94;5038221;28;20397;-70
2021/08/24 08:09:13;;;;;;;2.43;1.60;;;;;;;17.50;66.32;102045.72;5034841;28;20227;-72
2021/08/24 08:11:40;;;;;;;2.43;1.57;;;;;;;17.62;65.85;102044.81;5046240;28;20300;-70
2021/08/24 08:14:07;;;;;;;7.87;1.83;;;;;;;17.74;65.60;102037.72;5038070;28;20205;-71
2021/08/24 08:16:36;;;;;;;3.87;1.50;;;;;;;17.81;64.88;102045.28;5035612;28;20209;-70
2021/08/24 08:19:03;;;;;;;3.50;1.43;;;;;;;17.91;64.30;102042.81;5044109;28;20232;-71
2021/08/24 08:21:31;;;;;;;2.53;1.37;;;;;;;18.02;64.85;102048.25;5033467;28;20207;-71
2021/08/24 08:23:58;;;;;;;2.63;1.43;;;;;;;18.09;64.02;102051.38;5043276;28;20213;-71
2021/08/24 08:26:24;;;;;;;4.80;1.47;;;;;;;18.09;63.83;102054.09;5039493;28;20234;-71
2021/08/24 08:28:51;;;;;;;2.70;1.40;;;;;;;18.07;63.56;102056.03;5040607;28;20228;-70
2021/08/24 08:31:18;;;;;;;2.20;1.30;;;;;;;18.08;63.52;102063.16;5041916;28;20699;-71
2021/08/24 08:33:46;;;;;;;2.30;1.33;;;;;;;18.10;64.02;102055.78;5039770;28;20595;-71
2021/08/24 08:36:13;;;;;;;3.57;1.23;;;;;;;18.13;63.90;102053.72;5031974;28;20208;-71
2021/08/24 08:38:39;;;;;;;4.40;1.53;;;;;;;18.10;63.04;102064.72;5037755;28;20250;-71
2021/08/24 08:41:13;;;;;;;2.13;0.83;;;;;;;18.06;62.62;102060.56;5042559;28;20668;-71
2021/08/24 08:43:46;;;;;;;3.43;1.40;;;;;;;18.01;62.60;102068.97;5033755;28;20205;-70
2021/08/24 08:46:27;;;;;;;2.47;1.00;;;;;;;18.08;62.92;102068.53;5037741;28;20619;-70
2021/08/24 08:49:21;;;;;;;3.10;1.23;;;;;;;18.14;62.73;102079.72;5031205;28;20230;-72
2021/08/24 08:51:56;;;;;;;2.63;1.40;;;;;;;18.20;62.17;102086.50;5032108;28;20209;-71
2021/08/24 08:54:39;;;;;;;2.70;0.90;;;;;;;18.28;62.18;102081.41;5032743;28;20215;-71
2021/08/24 08:57:10;;;;;;;1.97;1.03;;;;;;;18.38;60.85;102082.47;5039694;28;20202;-72
2021/08/24 08:59:45;;;;;;;1.97;1.10;;;;;;;18.39;60.64;102084.19;5029578;28;20228;-72
2021/08/24 09:02:21;;;;;;;2.60;1.13;;;;;;;18.40;60.40;102091.31;5034702;28;20224;-71
2021/08/24 09:04:52;;;;;;;2.03;1.10;;;;;;;18.48;60.49;102086.19;5047808;28;20214;-72
2021/08/24 09:07:24;;;;;;;1.40;0.90;;;;;;;18.62;60.21;102085.22;5039307;28;20686;-71
2021/08/24 09:09:52;;;;;;;1.47;0.87;;;;;;;18.75;60.16;102077.94;5032112;28;20234;-71
2021/08/24 09:12:20;;;;;;;1.50;1.00;;;;;;;18.92;59.97;102073.97;5030973;28;20200;-71
2021/08/24 09:14:49;;;;;;;2.20;1.00;;;;;;;19.10;58.71;102079.78;5029525;28;20209;-72
2021/08/24 09:17:26;;;;;;;1.33;1.10;;;;;;;19.25;58.50;102084.88;5040414;28;20204;-74
2021/08/24 09:19:58;;;;;;;1.30;0.90;;;;;;;19.31;56.25;102079.00;5029122;28;20258;-73
2021/08/24 09:22:25;;;;;;;0.97;0.83;;;;;;;19.35;55.90;102079.59;5028881;28;20207;-71
2021/08/24 09:24:51;;;;;;;2.87;0.80;;;;;;;19.41;55.70;102080.00;5029958;28;20207;-71
2021/08/24 09:27:31;;;;;;;2.03;1.20;;;;;;;19.54;55.84;102081.75;5028712;28;20225;-70
2021/08/24 09:29:58;;;;;;;1.40;0.80;;;;;;;19.69;55.79;102077.88;5029533;28;20219;-70
2021/08/24 09:32:27;;;;;;;3.17;0.97;;;;;;;19.88;55.09;102080.84;5033262;28;20210;-70
2021/08/24 09:35:12;;;;;;;2.23;0.77;;;;;;;20.03;54.59;102082.31;5030351;28;20602;-70
2021/08/24 09:37:40;;;;;;;2.33;1.00;;;;;;;20.02;52.55;102080.59;5032093;28;20204;-71
2021/08/24 09:40:10;;;;;;;1.07;0.70;;;;;;;20.03;53.10;102079.59;5029391;28;20228;-74
2021/08/24 09:42:40;;;;;;;2.37;1.10;;;;;;;20.11;53.43;102071.72;5037249;28;20628;-71
2021/08/24 09:45:24;;;;;;;3.30;0.90;;;;;;;20.29;53.82;102079.31;5046461;28;20340;-69
2021/08/24 09:48:04;;;;;;;2.00;1.07;;;;;;;20.39;52.53;102069.50;5030845;28;20219;-69
2021/08/24 09:50:34;;;;;;;0.87;0.70;;;;;;;20.39;51.11;102070.38;5029665;28;20230;-69
2021/08/24 09:53:01;;;;;;;2.03;0.90;;;;;;;20.33;50.23;102064.56;5028203;28;20206;-70
2021/08/24 09:55:31;;;;;;;1.63;0.80;;;;;;;20.36;50.51;102069.72;5037059;28;20684;-71
2021/08/24 09:58:00;;;;;;;1.63;1.00;;;;;;;20.39;50.33;102072.22;5045158;28;20219;-72
2021/08/24 10:00:32;;;;;;;2.40;0.90;;;;;;;20.35;50.91;102062.59;5036387;28;20236;-71
2021/08/24 10:03:00;;;;;;;1.63;0.90;;;;;;;20.29;51.09;102071.19;5032296;28;20215;-70
2021/08/24 10:05:36;;;;;;;1.73;0.93;;;;;;;20.22;50.57;102065.47;5047202;28;20202;-71
2021/08/24 10:08:28;;;;;;;2.10;0.80;;;;;;;20.19;51.20;102063.00;5036281;28;20207;-71
2021/08/24 10:11:02;;;;;;;1.17;0.87;;;;;;;20.24;51.53;102060.78;5042322;28;20209;-72
2021/08/24 10:13:32;;;;;;;1.50;0.77;;;;;;;20.33;50.83;102064.56;5039351;28;20211;-71
2021/08/24 10:16:05;;;;;;;2.87;0.87;;;;;;;20.41;49.85;102059.44;5042502;28;20210;-72
2021/08/24 10:18:33;;;;;;;4.27;1.60;;;;;;;20.47;50.24;102066.16;5036046;28;20231;-70
2021/08/24 10:21:14;;;;;;;1.30;0.73;;;;;;;20.56;49.74;102063.56;5042865;28;20229;-69
2021/08/24 10:23:49;;;;;;;1.00;0.80;;;;;;;20.60;48.36;102070.41;5043659;28;20214;-71
2021/08/24 10:26:23;;;;;;;1.63;0.80;;;;;;;20.61;48.71;102064.03;5033295;28;20227;-70
2021/08/24 10:28:52;;;;;;;1.33;0.97;;;;;;;20.65;47.20;102057.38;5037429;28;20703;-70
2021/08/24 10:31:29;;;;;;;2.33;0.90;;;;;;;20.67;48.44;102049.97;5034248;28;20209;-70
2021/08/24 10:33:58;;;;;;;2.70;0.80;;;;;;;20.72;48.28;102053.16;5040857;28;20439;-70
2021/08/24 10:36:32;;;;;;;1.20;0.80;;;;;;;20.84;48.79;102040.44;5039086;28;20213;-70
2021/08/24 10:39:01;;;;;;;2.17;0.70;;;;;;;20.95;48.57;102039.53;5034208;28;20225;-71
2021/08/24 10:41:38;;;;;;;2.53;1.10;;;;;;;21.02;47.85;102036.16;5036714;28;21591;-71
2021/08/24 10:44:16;;;;;;;0.75;0.73;;;;;;;21.10;47.62;102036.38;5040312;28;20209;-71
2021/08/24 10:46:52;;;;;;;1.38;0.85;;;;;;;21.29;48.06;102032.13;5035903;28;20233;-70
2021/08/24 10:49:18;;;;;;;3.88;0.93;;;;;;;21.42;47.27;102038.19;5034048;28;20703;-70
2021/08/24 10:51:56;;;;;;;5.82;1.35;;;;;;;21.59;46.72;102036.69;5038336;28;20232;-70
2021/08/24 10:54:43;;;;;;;1.00;0.90;;;;;;;21.65;45.61;102033.47;5039032;28;20666;-70
2021/08/24 10:57:32;;;;;;;1.48;0.90;;;;;;;21.59;44.74;102018.59;5021609;28;20213;-70
2021/08/24 11:00:06;;;;;;;2.05;0.93;;;;;;;21.58;44.35;102033.13;5032995;28;20226;-71
2021/08/24 11:02:47;;;;;;;0.90;0.70;;;;;;;21.50;43.90;102032.94;5038585;28;20205;-71
2021/08/24 11:05:32;;;;;;;0.88;0.70;;;;;;;21.43;44.67;102038.03;5042107;28;20222;-70
2021/08/24 11:08:13;;;;;;;1.80;0.73;;;;;;;21.38;45.14;102034.88;5033810;28;20194;-71
2021/08/24 11:10:48;;;;;;;1.92;0.70;;;;;;;21.40;45.36;102037.44;5036245;28;20220;-70
2021/08/24 11:13:31;;;;;;;2.15;0.98;;;;;;;21.46;45.46;102036.94;5033260;28;20220;-71
2021/08/24 11:16:04;;;;;;;2.47;0.80;;;;;;;21.51;45.59;102034.66;5034465;28;20202;-71
2021/08/24 11:18:43;;;;;;;1.10;0.75;;;;;;;21.61;45.63;102032.00;5034417;28;20202;-70
2021/08/24 11:21:19;;;;;;;1.15;0.63;;;;;;;21.72;45.79;102040.03;5032258;28;20201;-71
2021/08/24 11:24:01;;;;;;;1.35;0.90;;;;;;;21.79;45.20;102017.69;5037643;28;20202;-71
2021/08/24 11:26:34;;;;;;;1.35;0.88;;;;;;;21.89;44.52;102024.97;5040355;28;20253;-69
2021/08/24 11:29:16;;;;;;;1.33;0.90;;;;;;;21.91;45.35;102026.56;5033357;28;20227;-70
2021/08/24 11:31:47;;;;;;;1.98;0.60;;;;;;;21.94;44.17;102031.72;5034478;28;20237;-70
2021/08/24 11:34:21;;;;;;;2.15;0.98;;;;;;;21.89;43.94;102023.13;5033212;28;20202;-71
2021/08/24 11:36:52;;;;;;;1.00;0.80;;;;;;;21.87;44.30;102018.81;5041185;28;20280;-69